Queen Of Coquitlam — CZ8058 — position and weather

sailwx.info

Track history (hours):
 
Tides and Currents Weather Stations Pressure Air Temp Water Temp Dewpoint Dewpoint Depression Visibility Wind Speed Wind Dir Waves Ship Positions

Queen Of Coquitlam

Last reported at 2018-Feb-19 05:35 UTC. Time now 2018-Feb-19 06:14 UTC.
Position N 49°13' W 123°54'.

Length 139 m; draft 4 m.

Type: Passenger vessel. MMSI: 316001249.

Date/timePositionNaut miles runAvg speedWind from/ knotsBaromVisibWave heightAir tempDewpointWater temp
2018-Feb-19 05:35N 49°13' W 123°54'219.6
2018-Feb-19 05:30N 49°14' W 123°51'1019.5
2018-Feb-19 05:00N 49°17' W 123°37'1019.6
2018-Feb-19 04:30N 49°20' W 123°23'5 6.9
2018-Feb-19 03:46N 49°23' W 123°16'310.1
2018-Feb-19 03:30N 49°21' W 123°20'918.7
2018-Feb-19 03:00N 49°17' W 123°32'8 4.0
2018-Feb-19 00:56N 49°16' W 123°45'819.0
2018-Feb-19 00:30N 49°18' W 123°33'918.5
2018-Feb-19 00:00N 49°21' W 123°20'3 5.5
2018-Feb-18 23:30N 49°23' W 123°16'0 0.0
2018-Feb-18 22:55N 49°23' W 123°16'2 4.8
2018-Feb-18 22:30N 49°22' W 123°19'917.9
2018-Feb-18 22:00N 49°17' W 123°31'1018.7
2018-Feb-18 21:29N 49°15' W 123°45'8 6.8
2018-Feb-18 20:19N 49°12' W 123°57'618.2
2018-Feb-18 20:00N 49°15' W 123°49'918.8
2018-Feb-18 19:31N 49°18' W 123°36'918.7
2018-Feb-18 19:01N 49°20' W 123°22'5 8.4
2018-Feb-18 18:28N 49°23' W 123°16'1 2.5
2018-Feb-18 18:00N 49°23' W 123°18'918.2
2018-Feb-18 17:30N 49°18' W 123°30'1019.4
2018-Feb-18 17:00N 49°15' W 123°44'5 3.8
2018-Feb-18 15:41N 49°14' W 123°52'419.5
2018-Feb-18 15:30N 49°15' W 123°46'919.3
2018-Feb-18 15:00N 49°18' W 123°33'918.6
2018-Feb-18 14:30N 49°21' W 123°19'2 1.0
2018-Feb-18 12:08N 49°23' W 123°16'0 0.0
2018-Feb-18 11:44N 49°23' W 123°16'0 0.0
2018-Feb-18 11:26N 49°23' W 123°16'0 0.0
2018-Feb-18 08:14N 49°23' W 123°16'0 0.0
2018-Feb-18 07:55N 49°23' W 123°16'512.3
2018-Feb-18 07:30N 49°19' W 123°22'919.2
2018-Feb-18 07:00N 49°16' W 123°36'1119.2
2018-Feb-18 06:27N 49°14' W 123°52'4 5.6
2018-Feb-18 05:45N 49°12' W 123°57'417.7
2018-Feb-18 05:30N 49°14' W 123°51'918.9
2018-Feb-18 05:00N 49°17' W 123°37'1019.0
2018-Feb-18 04:30N 49°19' W 123°23'6 5.7
2018-Feb-18 03:31N 49°23' W 123°16'010.3
2018-Feb-18 03:30N 49°23' W 123°16'917.8
2018-Feb-18 03:00N 49°18' W 123°28'1020.0
2018-Feb-18 02:30N 49°15' W 123°42'1019.9
2018-Feb-18 02:00N 49°12' W 123°57'0 0.4
2018-Feb-18 01:21N 49°12' W 123°56'818.7
2018-Feb-18 00:55N 49°15' W 123°45'819.0
2018-Feb-18 00:31N 49°18' W 123°33'918.6
2018-Feb-18 00:01N 49°21' W 123°20'3 2.3
2018-Feb-17 22:42N 49°23' W 123°16'2 9.5
2018-Feb-17 22:30N 49°22' W 123°19'918.6
2018-Feb-17 22:00N 49°17' W 123°31'1019.1
2018-Feb-17 21:30N 49°14' W 123°45'8 6.9
2018-Feb-17 20:20N 49°12' W 123°57'617.9
2018-Feb-17 20:00N 49°15' W 123°49'918.7
2018-Feb-17 19:30N 49°18' W 123°36'918.5
2018-Feb-17 19:00N 49°20' W 123°22'4 5.6
2018-Feb-17 18:12N 49°23' W 123°16'1 3.6
2018-Feb-17 18:00N 49°23' W 123°17'1019.1
2018-Feb-17 17:30N 49°18' W 123°29'1119.9
2018-Feb-17 16:58N 49°15' W 123°45'8 8.0
2018-Feb-17 15:56N 49°12' W 123°57'817.6
2018-Feb-17 15:27N 49°15' W 123°46'818.6
2018-Feb-17 15:00N 49°18' W 123°33'918.4
2018-Feb-17 14:30N 49°21' W 123°20'3 0.7
2018-Feb-17 09:54N 49°23' W 123°16'0 0.0
2018-Feb-17 09:21N 49°23' W 123°16'0 0.1
2018-Feb-17 07:52N 49°23' W 123°16'616.0
2018-Feb-17 07:30N 49°19' W 123°23'1019.6
2018-Feb-17 07:00N 49°16' W 123°37'1219.5
2018-Feb-17 06:24N 49°13' W 123°55'2 2.8
2018-Feb-17 05:45N 49°12' W 123°57'517.6
2018-Feb-17 05:30N 49°14' W 123°51'918.7
2018-Feb-17 05:00N 49°17' W 123°37'918.8
2018-Feb-17 04:30N 49°20' W 123°24'6 7.8
2018-Feb-17 03:48N 49°23' W 123°16'0 1.4
2018-Feb-17 03:30N 49°23' W 123°16'918.8
2018-Feb-17 03:00N 49°18' W 123°28'1120.7
2018-Feb-17 02:30N 49°15' W 123°44'6 4.6
2018-Feb-17 01:13N 49°14' W 123°53'519.9
2018-Feb-17 00:58N 49°15' W 123°46'920.0
2018-Feb-17 00:30N 49°18' W 123°32'1019.0
2018-Feb-17 00:00N 49°22' W 123°19'2 1.3
2018-Feb-16 22:45N 49°23' W 123°16'2 8.2
2018-Feb-16 22:30N 49°22' W 123°19'918.2
2018-Feb-16 22:00N 49°17' W 123°31'1018.7
2018-Feb-16 21:27N 49°14' W 123°46'7 5.8
2018-Feb-16 20:17N 49°12' W 123°56'619.1
2018-Feb-16 19:58N 49°15' W 123°48'919.5
2018-Feb-16 19:30N 49°18' W 123°35'1019.1
2018-Feb-16 19:00N 49°20' W 123°21'4 7.3
2018-Feb-16 18:30N 49°23' W 123°16'3 5.8
2018-Feb-16 18:00N 49°21' W 123°20'1019.7
2018-Feb-16 17:30N 49°17' W 123°34'1120.7
2018-Feb-16 16:59N 49°14' W 123°50'5 5.2
2018-Feb-16 15:56N 49°12' W 123°57'817.8
2018-Feb-16 15:29N 49°15' W 123°46'918.8
2018-Feb-16 15:00N 49°18' W 123°33'918.1
2018-Feb-16 14:30N 49°21' W 123°20'3 0.4
2018-Feb-16 07:58N 49°23' W 123°16'510.9
2018-Feb-16 07:30N 49°19' W 123°22'1019.4
2018-Feb-16 07:00N 49°16' W 123°36'1019.2
2018-Feb-16 06:29N 49°14' W 123°51'3 4.1
2018-Feb-16 05:39N 49°12' W 123°56'620.4
2018-Feb-16 05:20N 49°15' W 123°47'720.3
2018-Feb-16 05:00N 49°17' W 123°38'1019.5
2018-Feb-16 04:30N 49°19' W 123°23'5 5.8
2018-Feb-16 03:34N 49°23' W 123°16'0 7.5
2018-Feb-16 03:30N 49°23' W 123°16'917.7
2018-Feb-16 03:00N 49°18' W 123°27'1020.2
2018-Feb-16 02:30N 49°15' W 123°43'9 8.3
2018-Feb-16 01:22N 49°12' W 123°56'718.8
2018-Feb-16 01:00N 49°15' W 123°47'919.0
2018-Feb-16 00:30N 49°18' W 123°33'918.5
2018-Feb-16 00:00N 49°21' W 123°20'3 2.1
2018-Feb-15 22:44N 49°23' W 123°16'2 7.9
2018-Feb-15 22:30N 49°22' W 123°19'918.6
2018-Feb-15 22:00N 49°17' W 123°31'1019.3
2018-Feb-15 21:30N 49°15' W 123°46'8 6.7
2018-Feb-15 20:19N 49°12' W 123°57'618.8
2018-Feb-15 19:59N 49°15' W 123°49'1019.7
2018-Feb-15 19:30N 49°18' W 123°35'1019.2
2018-Feb-15 19:00N 49°20' W 123°21'4 4.8
2018-Feb-15 18:15N 49°23' W 123°16'1 3.5
2018-Feb-15 18:01N 49°23' W 123°18'918.5
2018-Feb-15 17:30N 49°17' W 123°29'1019.6
2018-Feb-15 16:59N 49°15' W 123°44'9 8.7
2018-Feb-15 15:55N 49°12' W 123°57'818.4
2018-Feb-15 15:30N 49°15' W 123°46'919.2
2018-Feb-15 15:00N 49°18' W 123°32'918.3
2018-Feb-15 14:29N 49°22' W 123°19'2 2.7
2018-Feb-15 13:44N 49°23' W 123°16'0 0.0
2018-Feb-15 13:26N 49°23' W 123°16'0 0.0
2018-Feb-15 07:56N 49°23' W 123°16'511.7
2018-Feb-15 07:30N 49°19' W 123°22'1019.0
2018-Feb-15 07:00N 49°16' W 123°36'1119.0
2018-Feb-15 06:24N 49°13' W 123°53'3 4.6
2018-Feb-15 05:45N 49°12' W 123°57'417.1
2018-Feb-15 05:30N 49°14' W 123°51'918.6
2018-Feb-15 05:00N 49°17' W 123°38'918.7
2018-Feb-15 04:30N 49°19' W 123°24'6 7.2
2018-Feb-15 03:39N 49°23' W 123°16'0 2.0
2018-Feb-15 03:30N 49°23' W 123°16'917.7
2018-Feb-15 03:01N 49°18' W 123°27'1020.3
2018-Feb-15 02:30N 49°15' W 123°43'10 9.0
2018-Feb-15 01:24N 49°12' W 123°57'918.3
2018-Feb-15 00:55N 49°16' W 123°45'819.4
2018-Feb-15 00:30N 49°18' W 123°33'918.8
2018-Feb-15 00:00N 49°21' W 123°20'3 2.0
2018-Feb-14 22:40N 49°23' W 123°16'212.6
2018-Feb-14 22:30N 49°22' W 123°19'918.3
2018-Feb-14 22:00N 49°17' W 123°31'1810.5
2018-Feb-14 20:20N 49°12' W 123°57'718.1
2018-Feb-14 19:56N 49°15' W 123°47'819.3
2018-Feb-14 19:30N 49°17' W 123°35'919.0
2018-Feb-14 19:00N 49°20' W 123°21'4 7.8
2018-Feb-14 18:28N 49°23' W 123°16'1 2.0
2018-Feb-14 18:00N 49°23' W 123°18'918.3
2018-Feb-14 17:30N 49°18' W 123°29'1019.3
2018-Feb-14 16:59N 49°15' W 123°44'9 8.3
2018-Feb-14 15:54N 49°12' W 123°57'718.2
2018-Feb-14 15:30N 49°15' W 123°47'1019.1
2018-Feb-14 14:59N 49°18' W 123°32'918.5
2018-Feb-14 14:30N 49°21' W 123°20'3 0.4
2018-Feb-14 07:53N 49°23' W 123°16'615.2
2018-Feb-14 07:30N 49°19' W 123°22'918.9
2018-Feb-14 07:00N 49°16' W 123°36'1019.0
2018-Feb-14 06:30N 49°14' W 123°51'2 1.9
2018-Feb-14 05:23N 49°15' W 123°48'718.7
2018-Feb-14 05:00N 49°17' W 123°38'918.7
2018-Feb-14 04:30N 49°19' W 123°24'6 9.7
2018-Feb-14 03:55N 49°23' W 123°16'0 1.2
2018-Feb-14 03:30N 49°23' W 123°16'918.4
2018-Feb-14 03:00N 49°18' W 123°28'16 8.5
2018-Feb-14 01:10N 49°14' W 123°51'419.0
2018-Feb-14 00:57N 49°15' W 123°46'919.0
2018-Feb-14 00:30N 49°18' W 123°33'918.4
2018-Feb-14 00:00N 49°21' W 123°20'3 3.1
2018-Feb-13 23:06N 49°23' W 123°16'0 0.4
2018-Feb-13 22:41N 49°23' W 123°16'212.2
2018-Feb-13 22:30N 49°22' W 123°19'918.7
2018-Feb-13 22:00N 49°17' W 123°32'1019.3
2018-Feb-13 21:29N 49°14' W 123°46'8 6.6
2018-Feb-13 20:20N 49°12' W 123°57'617.6
2018-Feb-13 19:59N 49°15' W 123°49'918.8
2018-Feb-13 19:30N 49°18' W 123°36'918.9
2018-Feb-13 19:00N 49°20' W 123°22'5 8.9
2018-Feb-13 18:30N 49°23' W 123°16'1 1.4
2018-Feb-13 18:00N 49°23' W 123°17'918.6
2018-Feb-13 17:30N 49°18' W 123°29'1019.7
2018-Feb-13 17:00N 49°15' W 123°43'9 8.5
2018-Feb-13 15:54N 49°12' W 123°57'718.4
2018-Feb-13 15:30N 49°15' W 123°47'918.7
2018-Feb-13 15:00N 49°18' W 123°33'918.4
2018-Feb-13 14:30N 49°21' W 123°20'3 5.6
2018-Feb-13 14:00N 49°23' W 123°16'0 0.0
2018-Feb-13 12:44N 49°23' W 123°16'0 0.0
2018-Feb-13 12:11N 49°23' W 123°16'0 0.0
2018-Feb-13 11:50N 49°23' W 123°16'0 0.0
2018-Feb-13 11:29N 49°23' W 123°16'6 2.1
2018-Feb-13 08:53N 49°19' W 123°23'513.2
2018-Feb-13 08:30N 49°23' W 123°18'1019.9
2018-Feb-13 08:00N 49°17' W 123°31'1020.7
2018-Feb-13 07:30N 49°15' W 123°46'8 9.4
2018-Feb-13 06:40N 49°12' W 123°57'615.0
2018-Feb-13 06:17N 49°14' W 123°50'620.7
2018-Feb-13 06:00N 49°16' W 123°41'1020.8
2018-Feb-13 05:30N 49°19' W 123°26'713.5
2018-Feb-13 04:59N 49°23' W 123°16'1 2.3
2018-Feb-13 04:30N 49°23' W 123°18'1019.7
2018-Feb-13 04:00N 49°17' W 123°31'1020.7
2018-Feb-13 03:30N 49°15' W 123°46'8 7.2
2018-Feb-13 02:27N 49°12' W 123°57'919.9
2018-Feb-13 01:58N 49°16' W 123°44'1020.4
2018-Feb-13 01:30N 49°18' W 123°30'1019.3
2018-Feb-13 01:01N 49°23' W 123°17'0 0.6
2018-Feb-13 00:17N 49°23' W 123°16'415.8
2018-Feb-13 00:01N 49°20' W 123°21'1020.5
2018-Feb-12 23:31N 49°16' W 123°36'1220.2
2018-Feb-12 22:55N 49°13' W 123°54'2 1.4
2018-Feb-12 21:40N 49°13' W 123°56'520.1
2018-Feb-12 21:24N 49°14' W 123°48'820.7
2018-Feb-12 20:59N 49°17' W 123°36'1020.2
2018-Feb-12 20:30N 49°20' W 123°21'4 8.2
2018-Feb-12 19:58N 49°23' W 123°16'0 0.0
2018-Feb-12 19:18N 49°23' W 123°16'0 0.0
2018-Feb-12 19:00N 49°23' W 123°16'1 2.3
2018-Feb-12 18:30N 49°23' W 123°18'5 9.4
2018-Feb-12 18:00N 49°19' W 123°22'510.0
2018-Feb-12 17:31N 49°18' W 123°29'1019.1
2018-Feb-12 17:01N 49°15' W 123°43'5 3.4
2018-Feb-12 15:37N 49°14' W 123°51'319.0
2018-Feb-12 15:29N 49°15' W 123°47'919.0
2018-Feb-12 15:00N 49°18' W 123°34'918.6
2018-Feb-12 14:30N 49°21' W 123°20'3 5.5
2018-Feb-12 13:57N 49°23' W 123°16'0 0.0
2018-Feb-12 12:14N 49°23' W 123°16'0 0.0
2018-Feb-12 11:51N 49°23' W 123°16'0 0.0
2018-Feb-12 11:27N 49°23' W 123°16'0 0.0
2018-Feb-12 10:57N 49°23' W 123°16'0 0.0
2018-Feb-12 08:03N 49°23' W 123°16'0 0.7
2018-Feb-12 07:59N 49°23' W 123°16'713.9
2018-Feb-12 07:30N 49°18' W 123°23'918.5
2018-Feb-12 07:00N 49°16' W 123°37'1118.6
2018-Feb-12 06:26N 49°13' W 123°53'2 3.4
2018-Feb-12 05:42N 49°12' W 123°57'518.4
2018-Feb-12 05:25N 49°15' W 123°49'818.7
2018-Feb-12 05:00N 49°17' W 123°38'918.8
2018-Feb-12 04:30N 49°19' W 123°24'6 7.9
2018-Feb-12 03:45N 49°23' W 123°16'0 1.2
2018-Feb-12 03:31N 49°23' W 123°16'918.1
2018-Feb-12 03:00N 49°18' W 123°28'1020.6
2018-Feb-12 02:30N 49°15' W 123°43'9 8.7
2018-Feb-12 01:25N 49°12' W 123°57'818.5
2018-Feb-12 01:00N 49°15' W 123°46'1019.5
2018-Feb-12 00:30N 49°18' W 123°32'917.1
2018-Feb-12 00:00N 49°21' W 123°20'3 2.4
2018-Feb-11 22:40N 49°23' W 123°16'212.4
2018-Feb-11 22:30N 49°22' W 123°19'918.7
2018-Feb-11 22:01N 49°17' W 123°31'1019.4
2018-Feb-11 21:29N 49°14' W 123°46'7 6.5
2018-Feb-11 20:20N 49°12' W 123°57'717.9
2018-Feb-11 19:55N 49°15' W 123°47'818.6
2018-Feb-11 19:30N 49°18' W 123°35'918.7
2018-Feb-11 19:00N 49°20' W 123°22'4 7.7
2018-Feb-11 18:25N 49°23' W 123°16'1 1.8
2018-Feb-11 18:00N 49°23' W 123°17'918.4
2018-Feb-11 17:30N 49°18' W 123°29'1019.3
2018-Feb-11 17:00N 49°15' W 123°43'8 7.3
2018-Feb-11 15:50N 49°13' W 123°56'618.8
2018-Feb-11 15:30N 49°15' W 123°47'918.9
2018-Feb-11 15:00N 49°18' W 123°33'918.4
2018-Feb-11 14:30N 49°21' W 123°20'3 4.6
2018-Feb-11 13:51N 49°23' W 123°16'0 0.0
2018-Feb-11 12:33N 49°23' W 123°16'0 0.0
2018-Feb-11 12:30N 49°23' W 123°16'0 0.0
2018-Feb-11 11:51N 49°23' W 123°16'0 0.0
2018-Feb-11 11:27N 49°23' W 123°16'0 0.0
2018-Feb-11 10:51N 49°23' W 123°16'0 0.0
2018-Feb-11 10:24N 49°23' W 123°16'0 0.0
2018-Feb-11 09:54N 49°23' W 123°16'0 0.1
2018-Feb-11 07:53N 49°23' W 123°16'616.0
2018-Feb-11 07:31N 49°19' W 123°24'1019.6
2018-Feb-11 07:00N 49°16' W 123°38'918.3
2018-Feb-11 06:30N 49°14' W 123°52'4 5.2
2018-Feb-11 05:44N 49°12' W 123°57'618.0
2018-Feb-11 05:24N 49°15' W 123°49'719.2
2018-Feb-11 05:00N 49°17' W 123°38'1019.2
2018-Feb-11 04:30N 49°19' W 123°24'611.4
2018-Feb-11 04:00N 49°23' W 123°16'0 0.4
2018-Feb-11 03:30N 49°23' W 123°16'917.1
2018-Feb-11 03:00N 49°18' W 123°27'1020.2
2018-Feb-11 02:31N 49°15' W 123°42'10 8.8
2018-Feb-11 01:20N 49°12' W 123°57'818.3
2018-Feb-11 00:55N 49°15' W 123°47'820.6
2018-Feb-11 00:30N 49°18' W 123°34'1019.7
2018-Feb-11 00:00N 49°21' W 123°20'3 2.6
2018-Feb-10 22:53N 49°23' W 123°16'2 5.2
2018-Feb-10 22:30N 49°21' W 123°19'918.5
2018-Feb-10 22:00N 49°17' W 123°31'1019.1
2018-Feb-10 21:30N 49°14' W 123°46'7 5.3
2018-Feb-10 20:14N 49°13' W 123°56'519.3
2018-Feb-10 19:58N 49°15' W 123°49'919.4
2018-Feb-10 19:30N 49°18' W 123°35'1019.4
2018-Feb-10 19:00N 49°20' W 123°21'4 7.0
2018-Feb-10 18:24N 49°23' W 123°16'1 2.0
2018-Feb-10 18:00N 49°23' W 123°17'918.7
2018-Feb-10 17:30N 49°18' W 123°29'1019.6
2018-Feb-10 17:00N 49°15' W 123°44'8 7.2
2018-Feb-10 15:50N 49°12' W 123°56'719.0
2018-Feb-10 15:28N 49°15' W 123°47'919.1
2018-Feb-10 15:00N 49°18' W 123°34'918.8
2018-Feb-10 14:30N 49°21' W 123°20'3 5.9
2018-Feb-10 14:00N 49°23' W 123°16'0 0.0
2018-Feb-10 12:13N 49°23' W 123°16'0 0.0
2018-Feb-10 11:55N 49°23' W 123°16'0 0.0
2018-Feb-10 11:25N 49°23' W 123°16'0 0.0
2018-Feb-10 07:58N 49°23' W 123°16'613.4
2018-Feb-10 07:30N 49°19' W 123°24'1019.5
2018-Feb-10 07:01N 49°15' W 123°38'1018.5
2018-Feb-10 06:30N 49°13' W 123°52'1 1.2
2018-Feb-10 05:38N 49°13' W 123°54'320.4
2018-Feb-10 05:30N 49°15' W 123°50'1020.1
2018-Feb-10 05:00N 49°18' W 123°36'1020.0
2018-Feb-10 04:31N 49°20' W 123°21'4 4.3
2018-Feb-10 03:34N 49°23' W 123°16'110.3
2018-Feb-10 03:30N 49°23' W 123°17'1019.9
2018-Feb-10 03:00N 49°17' W 123°30'1911.8
2018-Feb-10 01:24N 49°12' W 123°57'818.2
2018-Feb-10 00:59N 49°15' W 123°46'918.7
2018-Feb-10 00:30N 49°18' W 123°33'918.4
2018-Feb-10 00:00N 49°21' W 123°20'3 2.5
2018-Feb-09 22:50N 49°23' W 123°16'0 1.3
2018-Feb-09 22:39N 49°23' W 123°16'1117.3
2018-Feb-09 22:00N 49°17' W 123°31'3 1.0
2018-Feb-09 19:30N 49°18' W 123°35'1019.2
2018-Feb-09 19:01N 49°20' W 123°21'8 2.0
2018-Feb-09 15:00N 49°18' W 123°33'  
Track history (hours):
 
Tides and Currents Weather Stations Pressure Air Temp Water Temp Dewpoint Dewpoint Depression Visibility Wind Speed Wind Dir Waves Ship Positions

Queen Of Coquitlam

Last reported at 2018-Feb-19 05:35 UTC. Time now 2018-Feb-19 06:14 UTC.
Position N 49°13' W 123°54'.

Length 139 m; draft 4 m.

Type: Passenger vessel. MMSI: 316001249.

Date/timePositionNaut miles runAvg speedWind from/ knotsBaromVisibWave heightAir tempDewpointWater temp
2018-Feb-19 05:35N 49°13' W 123°54'219.6
2018-Feb-19 05:30N 49°14' W 123°51'1019.5
2018-Feb-19 05:00N 49°17' W 123°37'1019.6
2018-Feb-19 04:30N 49°20' W 123°23'5 6.9
2018-Feb-19 03:46N 49°23' W 123°16'310.1
2018-Feb-19 03:30N 49°21' W 123°20'918.7
2018-Feb-19 03:00N 49°17' W 123°32'8 4.0
2018-Feb-19 00:56N 49°16' W 123°45'819.0
2018-Feb-19 00:30N 49°18' W 123°33'918.5
2018-Feb-19 00:00N 49°21' W 123°20'3 5.5
2018-Feb-18 23:30N 49°23' W 123°16'0 0.0
2018-Feb-18 22:55N 49°23' W 123°16'2 4.8
2018-Feb-18 22:30N 49°22' W 123°19'917.9
2018-Feb-18 22:00N 49°17' W 123°31'1018.7
2018-Feb-18 21:29N 49°15' W 123°45'8 6.8
2018-Feb-18 20:19N 49°12' W 123°57'618.2
2018-Feb-18 20:00N 49°15' W 123°49'918.8
2018-Feb-18 19:31N 49°18' W 123°36'918.7
2018-Feb-18 19:01N 49°20' W 123°22'5 8.4
2018-Feb-18 18:28N 49°23' W 123°16'1 2.5
2018-Feb-18 18:00N 49°23' W 123°18'918.2
2018-Feb-18 17:30N 49°18' W 123°30'1019.4
2018-Feb-18 17:00N 49°15' W 123°44'5 3.8
2018-Feb-18 15:41N 49°14' W 123°52'419.5
2018-Feb-18 15:30N 49°15' W 123°46'919.3
2018-Feb-18 15:00N 49°18' W 123°33'918.6
2018-Feb-18 14:30N 49°21' W 123°19'2 1.0
2018-Feb-18 12:08N 49°23' W 123°16'0 0.0
2018-Feb-18 11:44N 49°23' W 123°16'0 0.0
2018-Feb-18 11:26N 49°23' W 123°16'0 0.0
2018-Feb-18 08:14N 49°23' W 123°16'0 0.0
2018-Feb-18 07:55N 49°23' W 123°16'512.3
2018-Feb-18 07:30N 49°19' W 123°22'919.2
2018-Feb-18 07:00N 49°16' W 123°36'1119.2
2018-Feb-18 06:27N 49°14' W 123°52'4 5.6
2018-Feb-18 05:45N 49°12' W 123°57'417.7
2018-Feb-18 05:30N 49°14' W 123°51'918.9
2018-Feb-18 05:00N 49°17' W 123°37'1019.0
2018-Feb-18 04:30N 49°19' W 123°23'6 5.7
2018-Feb-18 03:31N 49°23' W 123°16'010.3
2018-Feb-18 03:30N 49°23' W 123°16'917.8
2018-Feb-18 03:00N 49°18' W 123°28'1020.0
2018-Feb-18 02:30N 49°15' W 123°42'1019.9
2018-Feb-18 02:00N 49°12' W 123°57'0 0.4
2018-Feb-18 01:21N 49°12' W 123°56'818.7
2018-Feb-18 00:55N 49°15' W 123°45'819.0
2018-Feb-18 00:31N 49°18' W 123°33'918.6
2018-Feb-18 00:01N 49°21' W 123°20'3 2.3
2018-Feb-17 22:42N 49°23' W 123°16'2 9.5
2018-Feb-17 22:30N 49°22' W 123°19'918.6
2018-Feb-17 22:00N 49°17' W 123°31'1019.1
2018-Feb-17 21:30N 49°14' W 123°45'8 6.9
2018-Feb-17 20:20N 49°12' W 123°57'617.9
2018-Feb-17 20:00N 49°15' W 123°49'918.7
2018-Feb-17 19:30N 49°18' W 123°36'918.5
2018-Feb-17 19:00N 49°20' W 123°22'4 5.6
2018-Feb-17 18:12N 49°23' W 123°16'1 3.6
2018-Feb-17 18:00N 49°23' W 123°17'1019.1
2018-Feb-17 17:30N 49°18' W 123°29'1119.9
2018-Feb-17 16:58N 49°15' W 123°45'8 8.0
2018-Feb-17 15:56N 49°12' W 123°57'817.6
2018-Feb-17 15:27N 49°15' W 123°46'818.6
2018-Feb-17 15:00N 49°18' W 123°33'918.4
2018-Feb-17 14:30N 49°21' W 123°20'3 0.7
2018-Feb-17 09:54N 49°23' W 123°16'0 0.0
2018-Feb-17 09:21N 49°23' W 123°16'0 0.1
2018-Feb-17 07:52N 49°23' W 123°16'616.0
2018-Feb-17 07:30N 49°19' W 123°23'1019.6
2018-Feb-17 07:00N 49°16' W 123°37'1219.5
2018-Feb-17 06:24N 49°13' W 123°55'2 2.8
2018-Feb-17 05:45N 49°12' W 123°57'517.6
2018-Feb-17 05:30N 49°14' W 123°51'918.7
2018-Feb-17 05:00N 49°17' W 123°37'918.8
2018-Feb-17 04:30N 49°20' W 123°24'6 7.8
2018-Feb-17 03:48N 49°23' W 123°16'0 1.4
2018-Feb-17 03:30N 49°23' W 123°16'918.8
2018-Feb-17 03:00N 49°18' W 123°28'1120.7
2018-Feb-17 02:30N 49°15' W 123°44'6 4.6
2018-Feb-17 01:13N 49°14' W 123°53'519.9
2018-Feb-17 00:58N 49°15' W 123°46'920.0
2018-Feb-17 00:30N 49°18' W 123°32'1019.0
2018-Feb-17 00:00N 49°22' W 123°19'2 1.3
2018-Feb-16 22:45N 49°23' W 123°16'2 8.2
2018-Feb-16 22:30N 49°22' W 123°19'918.2
2018-Feb-16 22:00N 49°17' W 123°31'1018.7
2018-Feb-16 21:27N 49°14' W 123°46'7 5.8
2018-Feb-16 20:17N 49°12' W 123°56'619.1
2018-Feb-16 19:58N 49°15' W 123°48'919.5
2018-Feb-16 19:30N 49°18' W 123°35'1019.1
2018-Feb-16 19:00N 49°20' W 123°21'4 7.3
2018-Feb-16 18:30N 49°23' W 123°16'3 5.8
2018-Feb-16 18:00N 49°21' W 123°20'1019.7
2018-Feb-16 17:30N 49°17' W 123°34'1120.7
2018-Feb-16 16:59N 49°14' W 123°50'5 5.2
2018-Feb-16 15:56N 49°12' W 123°57'817.8
2018-Feb-16 15:29N 49°15' W 123°46'918.8
2018-Feb-16 15:00N 49°18' W 123°33'918.1
2018-Feb-16 14:30N 49°21' W 123°20'3 0.4
2018-Feb-16 07:58N 49°23' W 123°16'510.9
2018-Feb-16 07:30N 49°19' W 123°22'1019.4
2018-Feb-16 07:00N 49°16' W 123°36'1019.2
2018-Feb-16 06:29N 49°14' W 123°51'3 4.1
2018-Feb-16 05:39N 49°12' W 123°56'620.4
2018-Feb-16 05:20N 49°15' W 123°47'720.3
2018-Feb-16 05:00N 49°17' W 123°38'1019.5
2018-Feb-16 04:30N 49°19' W 123°23'5 5.8
2018-Feb-16 03:34N 49°23' W 123°16'0 7.5
2018-Feb-16 03:30N 49°23' W 123°16'917.7
2018-Feb-16 03:00N 49°18' W 123°27'1020.2
2018-Feb-16 02:30N 49°15' W 123°43'9 8.3
2018-Feb-16 01:22N 49°12' W 123°56'718.8
2018-Feb-16 01:00N 49°15' W 123°47'919.0
2018-Feb-16 00:30N 49°18' W 123°33'918.5
2018-Feb-16 00:00N 49°21' W 123°20'3 2.1
2018-Feb-15 22:44N 49°23' W 123°16'2 7.9
2018-Feb-15 22:30N 49°22' W 123°19'918.6
2018-Feb-15 22:00N 49°17' W 123°31'1019.3
2018-Feb-15 21:30N 49°15' W 123°46'8 6.7
2018-Feb-15 20:19N 49°12' W 123°57'618.8
2018-Feb-15 19:59N 49°15' W 123°49'1019.7
2018-Feb-15 19:30N 49°18' W 123°35'1019.2
2018-Feb-15 19:00N 49°20' W 123°21'4 4.8
2018-Feb-15 18:15N 49°23' W 123°16'1 3.5
2018-Feb-15 18:01N 49°23' W 123°18'918.5
2018-Feb-15 17:30N 49°17' W 123°29'1019.6
2018-Feb-15 16:59N 49°15' W 123°44'9 8.7
2018-Feb-15 15:55N 49°12' W 123°57'818.4
2018-Feb-15 15:30N 49°15' W 123°46'919.2
2018-Feb-15 15:00N 49°18' W 123°32'918.3
2018-Feb-15 14:29N 49°22' W 123°19'2 2.7
2018-Feb-15 13:44N 49°23' W 123°16'0 0.0
2018-Feb-15 13:26N 49°23' W 123°16'0 0.0
2018-Feb-15 07:56N 49°23' W 123°16'511.7
2018-Feb-15 07:30N 49°19' W 123°22'1019.0
2018-Feb-15 07:00N 49°16' W 123°36'1119.0
2018-Feb-15 06:24N 49°13' W 123°53'3 4.6
2018-Feb-15 05:45N 49°12' W 123°57'417.1
2018-Feb-15 05:30N 49°14' W 123°51'918.6
2018-Feb-15 05:00N 49°17' W 123°38'918.7
2018-Feb-15 04:30N 49°19' W 123°24'6 7.2
2018-Feb-15 03:39N 49°23' W 123°16'0 2.0
2018-Feb-15 03:30N 49°23' W 123°16'917.7
2018-Feb-15 03:01N 49°18' W 123°27'1020.3
2018-Feb-15 02:30N 49°15' W 123°43'10 9.0
2018-Feb-15 01:24N 49°12' W 123°57'918.3
2018-Feb-15 00:55N 49°16' W 123°45'819.4
2018-Feb-15 00:30N 49°18' W 123°33'918.8
2018-Feb-15 00:00N 49°21' W 123°20'3 2.0
2018-Feb-14 22:40N 49°23' W 123°16'212.6
2018-Feb-14 22:30N 49°22' W 123°19'918.3
2018-Feb-14 22:00N 49°17' W 123°31'1810.5
2018-Feb-14 20:20N 49°12' W 123°57'718.1
2018-Feb-14 19:56N 49°15' W 123°47'819.3
2018-Feb-14 19:30N 49°17' W 123°35'919.0
2018-Feb-14 19:00N 49°20' W 123°21'4 7.8
2018-Feb-14 18:28N 49°23' W 123°16'1 2.0
2018-Feb-14 18:00N 49°23' W 123°18'918.3
2018-Feb-14 17:30N 49°18' W 123°29'1019.3
2018-Feb-14 16:59N 49°15' W 123°44'9 8.3
2018-Feb-14 15:54N 49°12' W 123°57'718.2
2018-Feb-14 15:30N 49°15' W 123°47'1019.1
2018-Feb-14 14:59N 49°18' W 123°32'918.5
2018-Feb-14 14:30N 49°21' W 123°20'3 0.4
2018-Feb-14 07:53N 49°23' W 123°16'615.2
2018-Feb-14 07:30N 49°19' W 123°22'918.9
2018-Feb-14 07:00N 49°16' W 123°36'1019.0
2018-Feb-14 06:30N 49°14' W 123°51'2 1.9
2018-Feb-14 05:23N 49°15' W 123°48'718.7
2018-Feb-14 05:00N 49°17' W 123°38'918.7
2018-Feb-14 04:30N 49°19' W 123°24'6 9.7
2018-Feb-14 03:55N 49°23' W 123°16'0 1.2
2018-Feb-14 03:30N 49°23' W 123°16'918.4
2018-Feb-14 03:00N 49°18' W 123°28'16 8.5
2018-Feb-14 01:10N 49°14' W 123°51'419.0
2018-Feb-14 00:57N 49°15' W 123°46'919.0
2018-Feb-14 00:30N 49°18' W 123°33'918.4
2018-Feb-14 00:00N 49°21' W 123°20'3 3.1
2018-Feb-13 23:06N 49°23' W 123°16'0 0.4
2018-Feb-13 22:41N 49°23' W 123°16'212.2
2018-Feb-13 22:30N 49°22' W 123°19'918.7
2018-Feb-13 22:00N 49°17' W 123°32'1019.3
2018-Feb-13 21:29N 49°14' W 123°46'8 6.6
2018-Feb-13 20:20N 49°12' W 123°57'617.6
2018-Feb-13 19:59N 49°15' W 123°49'918.8
2018-Feb-13 19:30N 49°18' W 123°36'918.9
2018-Feb-13 19:00N 49°20' W 123°22'5 8.9
2018-Feb-13 18:30N 49°23' W 123°16'1 1.4
2018-Feb-13 18:00N 49°23' W 123°17'918.6
2018-Feb-13 17:30N 49°18' W 123°29'1019.7
2018-Feb-13 17:00N 49°15' W 123°43'9 8.5
2018-Feb-13 15:54N 49°12' W 123°57'718.4
2018-Feb-13 15:30N 49°15' W 123°47'918.7
2018-Feb-13 15:00N 49°18' W 123°33'918.4
2018-Feb-13 14:30N 49°21' W 123°20'3 5.6
2018-Feb-13 14:00N 49°23' W 123°16'0 0.0
2018-Feb-13 12:44N 49°23' W 123°16'0 0.0
2018-Feb-13 12:11N 49°23' W 123°16'0 0.0
2018-Feb-13 11:50N 49°23' W 123°16'0 0.0
2018-Feb-13 11:29N 49°23' W 123°16'6 2.1
2018-Feb-13 08:53N 49°19' W 123°23'513.2
2018-Feb-13 08:30N 49°23' W 123°18'1019.9
2018-Feb-13 08:00N 49°17' W 123°31'1020.7
2018-Feb-13 07:30N 49°15' W 123°46'8 9.4
2018-Feb-13 06:40N 49°12' W 123°57'615.0
2018-Feb-13 06:17N 49°14' W 123°50'620.7
2018-Feb-13 06:00N 49°16' W 123°41'1020.8
2018-Feb-13 05:30N 49°19' W 123°26'713.5
2018-Feb-13 04:59N 49°23' W 123°16'1 2.3
2018-Feb-13 04:30N 49°23' W 123°18'1019.7
2018-Feb-13 04:00N 49°17' W 123°31'1020.7
2018-Feb-13 03:30N 49°15' W 123°46'8 7.2
2018-Feb-13 02:27N 49°12' W 123°57'919.9
2018-Feb-13 01:58N 49°16' W 123°44'1020.4
2018-Feb-13 01:30N 49°18' W 123°30'1019.3
2018-Feb-13 01:01N 49°23' W 123°17'0 0.6
2018-Feb-13 00:17N 49°23' W 123°16'415.8
2018-Feb-13 00:01N 49°20' W 123°21'1020.5
2018-Feb-12 23:31N 49°16' W 123°36'1220.2
2018-Feb-12 22:55N 49°13' W 123°54'2 1.4
2018-Feb-12 21:40N 49°13' W 123°56'520.1
2018-Feb-12 21:24N 49°14' W 123°48'820.7
2018-Feb-12 20:59N 49°17' W 123°36'1020.2
2018-Feb-12 20:30N 49°20' W 123°21'4 8.2
2018-Feb-12 19:58N 49°23' W 123°16'0 0.0
2018-Feb-12 19:18N 49°23' W 123°16'0 0.0
2018-Feb-12 19:00N 49°23' W 123°16'1 2.3
2018-Feb-12 18:30N 49°23' W 123°18'5 9.4
2018-Feb-12 18:00N 49°19' W 123°22'510.0
2018-Feb-12 17:31N 49°18' W 123°29'1019.1
2018-Feb-12 17:01N 49°15' W 123°43'5 3.4
2018-Feb-12 15:37N 49°14' W 123°51'319.0
2018-Feb-12 15:29N 49°15' W 123°47'919.0
2018-Feb-12 15:00N 49°18' W 123°34'918.6
2018-Feb-12 14:30N 49°21' W 123°20'3 5.5
2018-Feb-12 13:57N 49°23' W 123°16'0 0.0
2018-Feb-12 12:14N 49°23' W 123°16'0 0.0
2018-Feb-12 11:51N 49°23' W 123°16'0 0.0
2018-Feb-12 11:27N 49°23' W 123°16'0 0.0
2018-Feb-12 10:57N 49°23' W 123°16'0 0.0
2018-Feb-12 08:03N 49°23' W 123°16'0 0.7
2018-Feb-12 07:59N 49°23' W 123°16'713.9
2018-Feb-12 07:30N 49°18' W 123°23'918.5
2018-Feb-12 07:00N 49°16' W 123°37'1118.6
2018-Feb-12 06:26N 49°13' W 123°53'2 3.4
2018-Feb-12 05:42N 49°12' W 123°57'518.4
2018-Feb-12 05:25N 49°15' W 123°49'818.7
2018-Feb-12 05:00N 49°17' W 123°38'918.8
2018-Feb-12 04:30N 49°19' W 123°24'6 7.9
2018-Feb-12 03:45N 49°23' W 123°16'0 1.2
2018-Feb-12 03:31N 49°23' W 123°16'918.1
2018-Feb-12 03:00N 49°18' W 123°28'1020.6
2018-Feb-12 02:30N 49°15' W 123°43'9 8.7
2018-Feb-12 01:25N 49°12' W 123°57'818.5
2018-Feb-12 01:00N 49°15' W 123°46'1019.5
2018-Feb-12 00:30N 49°18' W 123°32'917.1
2018-Feb-12 00:00N 49°21' W 123°20'3 2.4
2018-Feb-11 22:40N 49°23' W 123°16'212.4
2018-Feb-11 22:30N 49°22' W 123°19'918.7
2018-Feb-11 22:01N 49°17' W 123°31'1019.4
2018-Feb-11 21:29N 49°14' W 123°46'7 6.5
2018-Feb-11 20:20N 49°12' W 123°57'717.9
2018-Feb-11 19:55N 49°15' W 123°47'818.6
2018-Feb-11 19:30N 49°18' W 123°35'918.7
2018-Feb-11 19:00N 49°20' W 123°22'4 7.7
2018-Feb-11 18:25N 49°23' W 123°16'1 1.8
2018-Feb-11 18:00N 49°23' W 123°17'918.4
2018-Feb-11 17:30N 49°18' W 123°29'1019.3
2018-Feb-11 17:00N 49°15' W 123°43'8 7.3
2018-Feb-11 15:50N 49°13' W 123°56'618.8
2018-Feb-11 15:30N 49°15' W 123°47'918.9
2018-Feb-11 15:00N 49°18' W 123°33'918.4
2018-Feb-11 14:30N 49°21' W 123°20'3 4.6
2018-Feb-11 13:51N 49°23' W 123°16'0 0.0
2018-Feb-11 12:33N 49°23' W 123°16'0 0.0
2018-Feb-11 12:30N 49°23' W 123°16'0 0.0
2018-Feb-11 11:51N 49°23' W 123°16'0 0.0
2018-Feb-11 11:27N 49°23' W 123°16'0 0.0
2018-Feb-11 10:51N 49°23' W 123°16'0 0.0
2018-Feb-11 10:24N 49°23' W 123°16'0 0.0
2018-Feb-11 09:54N 49°23' W 123°16'0 0.1
2018-Feb-11 07:53N 49°23' W 123°16'616.0
2018-Feb-11 07:31N 49°19' W 123°24'1019.6
2018-Feb-11 07:00N 49°16' W 123°38'918.3
2018-Feb-11 06:30N 49°14' W 123°52'4 5.2
2018-Feb-11 05:44N 49°12' W 123°57'618.0
2018-Feb-11 05:24N 49°15' W 123°49'719.2
2018-Feb-11 05:00N 49°17' W 123°38'1019.2
2018-Feb-11 04:30N 49°19' W 123°24'611.4
2018-Feb-11 04:00N 49°23' W 123°16'0 0.4
2018-Feb-11 03:30N 49°23' W 123°16'917.1
2018-Feb-11 03:00N 49°18' W 123°27'1020.2
2018-Feb-11 02:31N 49°15' W 123°42'10 8.8
2018-Feb-11 01:20N 49°12' W 123°57'818.3
2018-Feb-11 00:55N 49°15' W 123°47'820.6
2018-Feb-11 00:30N 49°18' W 123°34'1019.7
2018-Feb-11 00:00N 49°21' W 123°20'3 2.6
2018-Feb-10 22:53N 49°23' W 123°16'2 5.2
2018-Feb-10 22:30N 49°21' W 123°19'918.5
2018-Feb-10 22:00N 49°17' W 123°31'1019.1
2018-Feb-10 21:30N 49°14' W 123°46'7 5.3
2018-Feb-10 20:14N 49°13' W 123°56'519.3
2018-Feb-10 19:58N 49°15' W 123°49'919.4
2018-Feb-10 19:30N 49°18' W 123°35'1019.4
2018-Feb-10 19:00N 49°20' W 123°21'4 7.0
2018-Feb-10 18:24N 49°23' W 123°16'1 2.0
2018-Feb-10 18:00N 49°23' W 123°17'918.7
2018-Feb-10 17:30N 49°18' W 123°29'1019.6
2018-Feb-10 17:00N 49°15' W 123°44'8 7.2
2018-Feb-10 15:50N 49°12' W 123°56'719.0
2018-Feb-10 15:28N 49°15' W 123°47'919.1
2018-Feb-10 15:00N 49°18' W 123°34'918.8
2018-Feb-10 14:30N 49°21' W 123°20'3 5.9
2018-Feb-10 14:00N 49°23' W 123°16'0 0.0
2018-Feb-10 12:13N 49°23' W 123°16'0 0.0
2018-Feb-10 11:55N 49°23' W 123°16'0 0.0
2018-Feb-10 11:25N 49°23' W 123°16'0 0.0
2018-Feb-10 07:58N 49°23' W 123°16'613.4
2018-Feb-10 07:30N 49°19' W 123°24'1019.5
2018-Feb-10 07:01N 49°15' W 123°38'1018.5
2018-Feb-10 06:30N 49°13' W 123°52'1 1.2
2018-Feb-10 05:38N 49°13' W 123°54'320.4
2018-Feb-10 05:30N 49°15' W 123°50'1020.1
2018-Feb-10 05:00N 49°18' W 123°36'1020.0
2018-Feb-10 04:31N 49°20' W 123°21'4 4.3
2018-Feb-10 03:34N 49°23' W 123°16'110.3
2018-Feb-10 03:30N 49°23' W 123°17'1019.9
2018-Feb-10 03:00N 49°17' W 123°30'1911.8
2018-Feb-10 01:24N 49°12' W 123°57'818.2
2018-Feb-10 00:59N 49°15' W 123°46'918.7
2018-Feb-10 00:30N 49°18' W 123°33'918.4
2018-Feb-10 00:00N 49°21' W 123°20'3 2.5
2018-Feb-09 22:50N 49°23' W 123°16'0 1.3
2018-Feb-09 22:39N 49°23' W 123°16'1117.3
2018-Feb-09 22:00N 49°17' W 123°31'3 1.0
2018-Feb-09 19:30N 49°18' W 123°35'1019.2
2018-Feb-09 19:01N 49°20' W 123°21'8 2.0
2018-Feb-09 15:00N 49°18' W 123°33'  

Dump ship's entire track history